Time;durP1;ratioP1;P1;durP2;ratioP2;P2;SDS_P1;SDS_P2;PMS_P1;PMS_P2;Temp;Humidity;BMP_temperature;BMP_pressure;BME280_temperature;BME280_humidity;BME280_pressure;Samples;Min_cycle;Max_cycle;Signal;HPM_P1;HPM_P2
2022/04/01 00:02:11;;;;;;;10.97;3.07;;;0.50;99.90;;;;;;5074866;28;20052;-90
2022/04/01 00:04:37;;;;;;;7.60;2.70;;;-0.60;99.90;;;;;;5073746;28;20056;-87
2022/04/01 00:07:03;;;;;;;9.10;3.27;;;0.60;99.90;;;;;;5074478;28;20060;-87
2022/04/01 00:09:28;;;;;;;10.10;3.57;;;-0.60;99.90;;;;;;5073655;28;20410;-87
2022/04/01 00:11:54;;;;;;;9.87;3.57;;;-0.60;99.90;;;;;;5075388;28;20265;-87
2022/04/01 00:14:19;;;;;;;8.33;3.00;;;-0.60;99.90;;;;;;5075164;28;20068;-87
2022/04/01 00:16:45;;;;;;;8.87;3.47;;;-0.60;99.90;;;;;;5074876;28;20040;-88
2022/04/01 00:19:12;;;;;;;9.80;3.40;;;-0.60;99.90;;;;;;5075430;28;20044;-87
2022/04/01 00:21:38;;;;;;;9.90;3.20;;;-0.60;99.90;;;;;;5075391;28;20052;-87
2022/04/01 00:24:04;;;;;;;11.00;3.20;;;-0.70;99.90;;;;;;5074477;28;20040;-88
2022/04/01 00:26:30;;;;;;;9.90;3.10;;;-0.60;99.90;;;;;;5073873;28;20410;-88
2022/04/01 00:28:55;;;;;;;10.30;2.70;;;-0.60;99.90;;;;;;5076071;28;20119;-87
2022/04/01 00:31:21;;;;;;;9.90;3.40;;;-0.60;99.90;;;;;;5074117;28;20048;-88
2022/04/01 00:33:47;;;;;;;8.73;3.30;;;-0.60;99.90;;;;;;5073857;28;20044;-88
2022/04/01 00:36:13;;;;;;;9.47;3.37;;;-0.60;99.90;;;;;;5073516;28;20047;-87
2022/04/01 00:38:39;;;;;;;10.23;3.40;;;-0.60;99.90;;;;;;5074386;28;20044;-87
2022/04/01 00:41:04;;;;;;;9.43;3.47;;;-0.70;99.90;;;;;;5074070;28;20082;-87
2022/04/01 00:43:32;;;;;;;7.13;2.60;;;-0.60;99.90;;;;;;5073372;28;20395;-88
2022/04/01 00:45:58;;;;;;;10.67;3.10;;;-0.60;99.90;;;;;;5072994;28;20056;-89
2022/04/01 00:48:25;;;;;;;7.93;2.87;;;-0.70;99.90;;;;;;5071981;28;20380;-88
2022/04/01 00:50:51;;;;;;;8.33;2.73;;;-0.70;99.90;;;;;;5073432;28;20048;-88
2022/04/01 00:53:17;;;;;;;7.80;2.53;;;-0.70;99.90;;;;;;5072540;28;20036;-88
2022/04/01 00:55:43;;;;;;;8.83;2.67;;;-0.70;99.90;;;;;;5073393;28;20528;-88
2022/04/01 00:58:09;;;;;;;8.07;2.77;;;-0.70;99.90;;;;;;5074795;28;20049;-88
2022/04/01 01:00:36;;;;;;;8.13;2.60;;;-0.70;99.90;;;;;;5072445;28;20131;-88
2022/04/01 01:03:03;;;;;;;8.57;2.40;;;-0.70;99.90;;;;;;5074534;28;20045;-89
2022/04/01 01:05:30;;;;;;;7.03;2.20;;;-0.70;99.90;;;;;;5073113;28;20044;-88
2022/04/01 01:07:57;;;;;;;6.27;2.20;;;-0.70;99.90;;;;;;5074109;28;20041;-87
2022/04/01 01:10:23;;;;;;;8.27;2.27;;;-0.70;99.90;;;;;;5072868;28;20040;-88
2022/04/01 01:12:49;;;;;;;7.90;2.67;;;-0.70;99.90;;;;;;5073811;28;20037;-88
2022/04/01 01:15:18;;;;;;;9.17;2.53;;;-0.70;99.90;;;;;;5072812;28;20098;-88
2022/04/01 01:17:45;;;;;;;7.27;2.50;;;-0.80;99.90;;;;;;5073230;28;20056;-89
2022/04/01 01:20:15;;;;;;;7.90;2.63;;;-0.80;99.90;;;;;;5072844;28;20386;-89
2022/04/01 01:22:42;;;;;;;8.37;2.60;;;-0.70;99.90;;;;;;5074700;28;20128;-88
2022/04/01 01:25:11;;;;;;;7.23;2.60;;;-0.80;99.90;;;;;;5072942;28;20036;-90
2022/04/01 01:27:37;;;;;;;8.77;2.50;;;-0.20;99.90;;;;;;5073369;28;20067;-89
2022/04/01 01:30:05;;;;;;;8.13;2.60;;;-0.80;99.90;;;;;;5074016;28;20041;-90
2022/04/01 01:32:32;;;;;;;7.43;2.37;;;-0.80;99.90;;;;;;5077897;28;20040;-88
2022/04/01 01:34:58;;;;;;;7.43;2.53;;;-0.80;99.90;;;;;;5071886;28;20053;-90
2022/04/01 01:37:24;;;;;;;7.53;2.43;;;-0.80;99.90;;;;;;5072311;28;20170;-88
2022/04/01 01:39:49;;;;;;;8.53;2.67;;;-0.80;99.90;;;;;;5072443;28;20124;-88
2022/04/01 01:42:15;;;;;;;13.80;2.47;;;-0.70;99.90;;;;;;5072770;28;20044;-89
2022/04/01 01:44:41;;;;;;;7.43;2.30;;;-0.80;99.90;;;;;;5073532;28;20048;-88
2022/04/01 01:47:07;;;;;;;8.30;2.47;;;-0.80;99.90;;;;;;5072346;28;20045;-88
2022/04/01 01:49:34;;;;;;;9.20;2.60;;;-0.70;99.90;;;;;;5072502;28;20046;-89
2022/04/01 01:54:45;;;;;;;7.67;2.30;;;-0.70;99.90;;;;;;5071991;28;20131;-88
2022/04/01 01:57:17;;;;;;;8.07;2.67;;;-0.70;99.90;;;;;;5071252;28;20071;-88
2022/04/01 01:59:44;;;;;;;6.47;1.90;;;-0.70;99.90;;;;;;5073978;28;20041;-88
2022/04/01 02:02:10;;;;;;;6.57;2.47;;;0.20;99.90;;;;;;5071322;28;20407;-89
2022/04/01 02:04:38;;;;;;;8.80;2.67;;;-0.20;99.90;;;;;;5073047;28;20040;-88
2022/04/01 02:07:04;;;;;;;9.40;2.70;;;-0.70;99.90;;;;;;5073453;28;20052;-89
2022/04/01 02:09:30;;;;;;;8.20;2.77;;;-0.70;99.90;;;;;;5072625;28;20382;-90
2022/04/01 02:11:56;;;;;;;8.03;2.83;;;-0.70;99.90;;;;;;5073795;28;20445;-89
2022/04/01 02:14:22;;;;;;;13.73;3.07;;;0.30;99.90;;;;;;5074865;28;20532;-89
2022/04/01 02:16:47;;;;;;;7.37;2.30;;;-0.60;99.90;;;;;;5079134;28;20044;-89
2022/04/01 02:19:20;;;;;;;8.20;2.80;;;-0.20;99.90;;;;;;5079467;28;20047;-89
2022/04/01 02:21:51;;;;;;;8.48;2.45;;;-0.70;99.90;;;;;;5071696;28;20036;-89
2022/04/01 02:24:18;;;;;;;11.30;2.30;;;-0.60;99.90;;;;;;5071763;28;20391;-88
2022/04/01 02:26:47;;;;;;;7.00;2.17;;;-0.60;99.90;;;;;;5071863;28;20063;-88
2022/04/01 02:29:13;;;;;;;8.53;2.53;;;-0.50;99.90;;;;;;5071425;28;20422;-89
2022/04/01 02:31:39;;;;;;;9.27;2.33;;;-0.60;99.90;;;;;;5072885;28;20052;-89
2022/04/01 02:34:05;;;;;;;7.77;2.57;;;-0.60;99.90;;;;;;5071906;28;20036;-89
2022/04/01 02:36:30;;;;;;;8.37;2.70;;;-0.60;99.90;;;;;;5072149;28;20375;-89
2022/04/01 02:38:56;;;;;;;8.50;2.70;;;-0.70;99.90;;;;;;5072246;28;20491;-89
2022/04/01 02:41:21;;;;;;;8.97;2.57;;;-0.70;99.90;;;;;;5072442;28;20041;-89
2022/04/01 02:43:47;;;;;;;6.60;2.30;;;-0.70;99.90;;;;;;5071644;28;20076;-89
2022/04/01 02:46:13;;;;;;;8.10;2.60;;;-0.60;99.90;;;;;;5072017;28;20033;-89
2022/04/01 02:48:39;;;;;;;8.23;1.97;;;-0.60;99.90;;;;;;5072999;28;20153;-89
2022/04/01 02:51:04;;;;;;;7.93;2.40;;;-0.70;99.90;;;;;;5080148;28;20048;-89
2022/04/01 02:53:30;;;;;;;7.60;2.57;;;-0.60;99.90;;;;;;5078112;28;20048;-89
2022/04/01 02:55:56;;;;;;;7.47;2.20;;;-0.70;99.90;;;;;;5079186;28;20085;-91
2022/04/01 02:58:21;;;;;;;8.23;2.40;;;-0.70;99.90;;;;;;5079724;28;20049;-88
2022/04/01 03:00:47;;;;;;;8.33;2.53;;;0.40;99.90;;;;;;5078741;28;20116;-89
2022/04/01 03:03:13;;;;;;;8.10;2.60;;;-0.60;99.90;;;;;;5079391;28;20052;-90
2022/04/01 03:05:42;;;;;;;7.67;2.03;;;-0.70;99.90;;;;;;5078827;28;20083;-89
2022/04/01 03:08:09;;;;;;;9.13;2.20;;;-0.60;99.90;;;;;;5079349;28;20071;-88
2022/04/01 03:10:36;;;;;;;7.67;2.00;;;0.10;99.90;;;;;;5079451;28;20143;-88
2022/04/01 03:13:03;;;;;;;8.47;2.20;;;-0.60;99.90;;;;;;5083562;28;20472;-89
2022/04/01 03:15:29;;;;;;;14.77;2.70;;;-0.60;99.90;;;;;;5082861;28;20045;-89
2022/04/01 03:17:56;;;;;;;8.47;2.20;;;-0.60;99.90;;;;;;5084099;28;20524;-89
2022/04/01 03:20:23;;;;;;;8.67;2.20;;;-0.60;99.90;;;;;;5083537;28;20078;-89
2022/04/01 03:22:49;;;;;;;6.47;2.30;;;-0.40;99.90;;;;;;5083159;28;20036;-88
2022/04/01 03:25:18;;;;;;;7.20;2.20;;;-0.10;99.90;;;;;;5082361;28;20048;-88
2022/04/01 03:27:45;;;;;;;6.97;2.03;;;0.30;99.90;;;;;;5083635;28;20040;-88
2022/04/01 03:30:13;;;;;;;8.70;2.43;;;-0.20;99.90;;;;;;5082721;28;20048;-89
2022/04/01 03:32:39;;;;;;;8.83;2.30;;;-0.60;99.90;;;;;;5084200;28;20044;-89
2022/04/01 03:35:08;;;;;;;7.70;2.43;;;0.10;99.90;;;;;;5082043;28;20099;-89
2022/04/01 03:37:35;;;;;;;8.33;2.20;;;-0.60;99.90;;;;;;5083642;28;20521;-88
2022/04/01 03:40:01;;;;;;;9.13;2.40;;;-0.50;99.90;;;;;;5084323;28;20039;-89
2022/04/01 03:42:30;;;;;;;8.87;2.40;;;-0.60;99.90;;;;;;5083965;28;20066;-89
2022/04/01 03:45:03;;;;;;;6.80;2.30;;;-0.50;99.90;;;;;;5084633;28;20041;-88
2022/04/01 03:47:51;;;;;;;8.37;2.30;;;0.20;99.90;;;;;;5083524;28;20074;-87
2022/04/01 03:50:22;;;;;;;10.40;2.47;;;-0.50;99.90;;;;;;5082214;28;20283;-88
2022/04/01 03:52:50;;;;;;;8.97;2.57;;;-0.60;99.90;;;;;;5083884;28;20048;-87
2022/04/01 03:55:16;;;;;;;7.40;2.30;;;-0.60;99.90;;;;;;5083073;28;20041;-88
2022/04/01 03:57:41;;;;;;;9.03;2.60;;;-0.60;99.90;;;;;;5083245;28;20059;-89
2022/04/01 04:00:12;;;;;;;8.13;2.20;;;0.10;99.90;;;;;;5082364;28;20131;-88
2022/04/01 04:02:43;;;;;;;8.80;2.60;;;-0.50;99.90;;;;;;5081186;28;20048;-88
2022/04/01 04:05:09;;;;;;;7.10;2.17;;;-0.50;99.90;;;;;;5081131;28;20389;-87
2022/04/01 04:07:36;;;;;;;8.40;2.70;;;-0.50;99.90;;;;;;5081853;28;20494;-88
2022/04/01 04:10:06;;;;;;;7.43;2.40;;;0.00;99.90;;;;;;5083126;28;20095;-88
2022/04/01 04:12:35;;;;;;;7.80;2.30;;;-0.50;99.90;;;;;;5082830;28;20047;-88
2022/04/01 04:15:02;;;;;;;9.17;2.37;;;-0.50;99.90;;;;;;5082866;28;20079;-89
2022/04/01 04:17:36;;;;;;;8.23;2.40;;;-0.50;99.90;;;;;;5083232;28;20036;-88
2022/04/01 04:20:09;;;;;;;7.60;2.23;;;0.40;99.90;;;;;;5084719;28;20117;-88
2022/04/01 04:22:51;;;;;;;8.97;2.33;;;-0.50;99.90;;;;;;5081439;28;20045;-89
2022/04/01 04:25:21;;;;;;;7.03;2.10;;;-0.50;99.90;;;;;;5082123;28;20048;-88
2022/04/01 04:27:57;;;;;;;8.70;2.40;;;-0.40;99.90;;;;;;5081704;28;20079;-87
2022/04/01 04:30:32;;;;;;;10.50;2.57;;;-0.40;99.90;;;;;;5081706;28;20048;-88
2022/04/01 04:33:11;;;;;;;9.27;2.70;;;-0.40;99.90;;;;;;5082157;28;20044;-88
2022/04/01 04:35:39;;;;;;;6.87;2.33;;;-0.40;99.90;;;;;;5081415;28;20087;-88
2022/04/01 04:38:07;;;;;;;7.70;2.30;;;-0.30;99.90;;;;;;5082427;28;20120;-88
2022/04/01 04:40:34;;;;;;;7.90;2.10;;;-0.30;99.90;;;;;;5081861;28;20056;-88
2022/04/01 04:43:01;;;;;;;7.27;2.20;;;-0.30;99.90;;;;;;5084281;28;20043;-88
2022/04/01 04:45:28;;;;;;;8.80;2.13;;;-0.20;99.90;;;;;;5081365;28;20051;-88
2022/04/01 04:47:54;;;;;;;8.03;1.97;;;-0.20;99.90;;;;;;5081608;28;20044;-89
2022/04/01 04:50:21;;;;;;;8.67;2.40;;;0.40;99.90;;;;;;5081616;28;20429;-88
2022/04/01 04:52:55;;;;;;;7.43;2.23;;;0.70;99.90;;;;;;5081909;28;20578;-89
2022/04/01 04:55:22;;;;;;;7.20;2.25;;;-0.10;99.90;;;;;;5080332;28;20487;-88
2022/04/01 04:57:49;;;;;;;10.07;2.20;;;-0.10;99.90;;;;;;5081510;28;20119;-89
2022/04/01 05:00:21;;;;;;;6.23;1.97;;;0.00;99.90;;;;;;5080367;28;20048;-89
2022/04/01 05:03:19;;;;;;;7.73;2.20;;;0.00;99.90;;;;;;5080474;28;20059;-88
2022/04/01 05:05:53;;;;;;;8.20;2.43;;;0.00;99.90;;;;;;5081852;28;20049;-88
2022/04/01 05:08:44;;;;;;;8.30;2.20;;;0.00;99.90;;;;;;5082466;28;20475;-89
2022/04/01 05:11:45;;;;;;;7.77;2.47;;;0.10;99.90;;;;;;5082429;28;20067;-88
2022/04/01 05:14:38;;;;;;;8.90;2.47;;;0.20;99.90;;;;;;5081752;28;20055;-88
2022/04/01 05:17:07;;;;;;;7.97;2.50;;;0.20;99.90;;;;;;5082061;28;20041;-88
2022/04/01 05:19:36;;;;;;;7.03;2.10;;;0.20;99.90;;;;;;5079347;28;20055;-88
2022/04/01 05:22:04;;;;;;;10.07;2.37;;;0.20;99.90;;;;;;5080736;28;20041;-87
2022/04/01 05:24:36;;;;;;;9.10;2.90;;;0.30;99.90;;;;;;5079935;28;20051;-89
2022/04/01 05:27:09;;;;;;;7.43;2.13;;;0.40;99.90;;;;;;5081275;28;20040;-88
2022/04/01 05:29:42;;;;;;;7.97;2.20;;;0.30;99.90;;;;;;5079940;28;20135;-88
2022/04/01 05:32:13;;;;;;;7.70;2.20;;;1.50;99.90;;;;;;5080236;28;20040;-88
2022/04/01 05:34:46;;;;;;;9.53;2.43;;;0.30;99.90;;;;;;5079806;28;20053;-88
2022/04/01 05:37:13;;;;;;;7.60;2.03;;;0.30;99.90;;;;;;5081007;28;20055;-88
2022/04/01 05:39:41;;;;;;;9.33;2.37;;;0.80;99.90;;;;;;5079701;28;20400;-88
2022/04/01 05:42:08;;;;;;;7.63;2.20;;;0.90;99.90;;;;;;5079382;28;20059;-87
2022/04/01 05:44:35;;;;;;;8.23;2.17;;;0.40;99.90;;;;;;5079045;28;20096;-88
2022/04/01 05:47:03;;;;;;;6.97;2.20;;;0.50;99.90;;;;;;5080672;28;20040;-88
2022/04/01 05:49:29;;;;;;;6.77;1.97;;;0.50;99.90;;;;;;5080693;28;20047;-89
2022/04/01 05:51:55;;;;;;;7.93;2.27;;;0.50;99.90;;;;;;5081126;28;20037;-88
2022/04/01 05:54:23;;;;;;;6.93;2.00;;;0.60;99.90;;;;;;5079104;28;20041;-88
2022/04/01 05:56:50;;;;;;;7.23;2.00;;;0.60;99.90;;;;;;5079616;28;20102;-89
2022/04/01 05:59:18;;;;;;;7.63;1.93;;;0.70;99.90;;;;;;5080439;28;20040;-89
2022/04/01 06:01:52;;;;;;;4.43;1.60;;;0.70;99.90;;;;;;5080941;28;20107;-88
2022/04/01 06:04:43;;;;;;;6.13;1.95;;;0.70;99.90;;;;;;5082232;28;20051;-89
2022/04/01 06:07:16;;;;;;;6.33;1.87;;;0.80;99.90;;;;;;5082941;28;20478;-88
2022/04/01 06:10:05;;;;;;;7.07;1.90;;;0.80;99.90;;;;;;5081445;28;20051;-88
2022/04/01 06:12:57;;;;;;;6.87;1.80;;;0.80;99.90;;;;;;5081129;28;20119;-89
2022/04/01 06:15:50;;;;;;;5.57;1.73;;;0.80;99.90;;;;;;5078530;28;20068;-89
2022/04/01 06:18:45;;;;;;;7.70;2.08;;;0.80;99.90;;;;;;5079348;28;20139;-88
2022/04/01 06:21:18;;;;;;;5.10;1.77;;;0.90;99.90;;;;;;5079230;28;20098;-87
2022/04/01 06:23:50;;;;;;;5.35;1.77;;;0.90;99.90;;;;;;5079258;28;20062;-88
2022/04/01 06:26:19;;;;;;;4.97;1.50;;;0.90;99.90;;;;;;5079175;28;20087;-87
2022/04/01 06:29:09;;;;;;;3.43;1.50;;;0.90;99.90;;;;;;5072088;28;20049;-87
2022/04/01 06:31:35;;;;;;;2.80;1.10;;;1.00;99.90;;;;;;5070104;28;20070;-86
2022/04/01 06:34:15;;;;;;;5.10;1.73;;;1.00;99.90;;;;;;5066391;28;20051;-85
2022/04/01 06:36:46;;;;;;;7.30;1.60;;;1.00;99.90;;;;;;5065329;28;20071;-88
2022/04/01 06:39:26;;;;;;;5.03;1.37;;;1.10;99.90;;;;;;5065412;28;20041;-86
2022/04/01 06:41:59;;;;;;;4.10;1.30;;;1.10;99.90;;;;;;5087988;28;20048;-87
2022/04/01 06:44:24;;;;;;;4.00;1.40;;;1.00;99.90;;;;;;5072772;28;20043;-87
2022/04/01 06:46:51;;;;;;;4.00;1.10;;;1.10;99.90;;;;;;5066201;28;20108;-90
2022/04/01 06:49:17;;;;;;;5.33;1.60;;;1.20;99.90;;;;;;5066461;28;20045;-89
2022/04/01 06:51:44;;;;;;;4.27;1.30;;;1.20;99.90;;;;;;5075682;28;20059;-90
2022/04/01 06:54:11;;;;;;;3.00;1.37;;;1.20;99.90;;;;;;5080776;28;20044;-91
2022/04/01 06:56:37;;;;;;;4.83;1.50;;;1.30;99.90;;;;;;5078173;28;20105;-88
2022/04/01 06:59:05;;;;;;;4.17;1.43;;;1.30;99.90;;;;;;5076703;28;20096;-88
2022/04/01 07:01:31;;;;;;;6.23;1.73;;;1.30;99.90;;;;;;5078579;28;20523;-88
2022/04/01 07:03:56;;;;;;;6.03;1.60;;;1.30;99.90;;;;;;5076804;28;20090;-88
2022/04/01 07:06:22;;;;;;;5.47;1.50;;;1.30;99.90;;;;;;5075397;28;20040;-89
2022/04/01 07:08:48;;;;;;;5.23;1.60;;;1.30;99.90;;;;;;5076579;28;20041;-88
2022/04/01 07:11:14;;;;;;;6.90;1.60;;;1.40;99.90;;;;;;5074530;28;20048;-86
2022/04/01 07:13:40;;;;;;;5.90;1.57;;;1.40;99.90;;;;;;5076383;28;20040;-88
2022/04/01 07:16:06;;;;;;;5.90;1.57;;;1.70;99.90;;;;;;5076872;28;20102;-88
2022/04/01 07:18:33;;;;;;;5.43;1.70;;;2.70;99.90;;;;;;5074494;28;20040;-86
2022/04/01 07:20:59;;;;;;;6.87;1.90;;;1.40;99.90;;;;;;5076602;28;20071;-87
2022/04/01 07:23:24;;;;;;;6.23;1.80;;;1.40;99.90;;;;;;5075663;28;20483;-87
2022/04/01 07:25:50;;;;;;;6.50;2.00;;;1.50;99.90;;;;;;5075248;28;20755;-87
2022/04/01 07:28:16;;;;;;;7.40;2.00;;;1.50;99.90;;;;;;5075121;28;20483;-87
2022/04/01 07:30:41;;;;;;;7.37;2.40;;;1.50;99.90;;;;;;5077500;28;20076;-89
2022/04/01 07:33:10;;;;;;;5.67;1.70;;;1.60;99.90;;;;;;5075628;28;20139;-87
2022/04/01 07:35:36;;;;;;;6.30;1.90;;;1.60;99.90;;;;;;5077784;28;20033;-91
2022/04/01 07:38:03;;;;;;;6.93;2.00;;;1.60;99.90;;;;;;5077785;28;20596;-89
2022/04/01 07:40:29;;;;;;;7.20;2.00;;;1.70;99.90;;;;;;5075071;28;20071;-88
2022/04/01 07:42:55;;;;;;;8.63;2.07;;;1.70;99.90;;;;;;5074712;28;20545;-89
2022/04/01 07:45:21;;;;;;;10.03;2.00;;;1.60;99.90;;;;;;5077102;28;20044;-89
2022/04/01 07:47:49;;;;;;;7.67;1.90;;;1.60;99.90;;;;;;5077005;28;20048;-89
2022/04/01 07:50:17;;;;;;;7.00;2.20;;;1.60;99.90;;;;;;5079468;28;20072;-89
2022/04/01 07:52:43;;;;;;;7.30;2.80;;;1.60;99.90;;;;;;5076793;28;20139;-89
2022/04/01 07:55:11;;;;;;;6.80;1.97;;;1.70;99.90;;;;;;5077995;28;20471;-89
2022/04/01 07:57:37;;;;;;;6.77;2.03;;;1.60;99.90;;;;;;5078507;28;20580;-88
2022/04/01 08:00:06;;;;;;;9.40;2.47;;;1.70;99.90;;;;;;5081882;28;20045;-89
2022/04/01 08:02:32;;;;;;;7.17;2.47;;;1.70;99.90;;;;;;5079639;28;20179;-87
2022/04/01 08:04:57;;;;;;;8.40;2.50;;;1.70;99.90;;;;;;5078937;28;20087;-88
2022/04/01 08:07:23;;;;;;;8.47;2.40;;;1.70;99.90;;;;;;5079656;28;20040;-87
2022/04/01 08:09:49;;;;;;;9.27;2.80;;;1.70;99.90;;;;;;5079806;28;20505;-86
2022/04/01 08:12:15;;;;;;;8.30;2.60;;;1.80;99.90;;;;;;5079449;28;20071;-86
2022/04/01 08:14:45;;;;;;;7.40;2.57;;;1.90;99.90;;;;;;5080597;28;20032;-87
2022/04/01 08:17:12;;;;;;;8.90;3.00;;;1.90;99.90;;;;;;5068763;28;20080;-88
2022/04/01 08:19:39;;;;;;;8.90;3.03;;;3.00;99.90;;;;;;5062341;28;20082;-87
2022/04/01 08:22:05;;;;;;;9.07;2.53;;;2.00;99.90;;;;;;5063759;28;20040;-88
2022/04/01 08:24:30;;;;;;;7.70;2.60;;;2.00;99.90;;;;;;5064753;28;20100;-86
2022/04/01 08:26:59;;;;;;;11.10;2.83;;;2.00;99.90;;;;;;5066675;28;20072;-86
2022/04/01 08:29:26;;;;;;;8.97;2.77;;;1.90;99.90;;;;;;5070956;28;20104;-86
2022/04/01 08:31:51;;;;;;;10.80;3.13;;;1.90;99.90;;;;;;5069283;28;20068;-86
2022/04/01 08:34:17;;;;;;;9.57;3.00;;;1.90;99.90;;;;;;5080545;28;20045;-86
2022/04/01 08:36:43;;;;;;;11.20;3.50;;;1.80;99.90;;;;;;5079910;28;20059;-86
2022/04/01 08:39:09;;;;;;;8.37;3.07;;;1.80;99.90;;;;;;5081544;28;20032;-86
2022/04/01 08:41:35;;;;;;;9.40;3.50;;;2.00;99.90;;;;;;5079544;28;20407;-85
2022/04/01 08:44:03;;;;;;;9.80;3.27;;;1.90;99.90;;;;;;5078672;28;20055;-84
2022/04/01 08:46:29;;;;;;;8.83;3.53;;;1.90;99.90;;;;;;5079484;28;20084;-85
2022/04/01 08:48:55;;;;;;;9.30;3.40;;;1.90;99.90;;;;;;5081078;28;20040;-84
2022/04/01 08:51:21;;;;;;;8.67;2.90;;;1.90;99.90;;;;;;5080553;28;20087;-84
2022/04/01 08:53:46;;;;;;;10.37;3.57;;;2.70;99.90;;;;;;5079170;28;20132;-86
2022/04/01 08:56:13;;;;;;;10.07;3.83;;;1.80;99.90;;;;;;5080737;28;20060;-85
2022/04/01 08:58:39;;;;;;;8.20;3.73;;;1.80;99.90;;;;;;5080622;28;20048;-85
2022/04/01 09:01:06;;;;;;;10.30;4.07;;;1.80;99.90;;;;;;5079482;28;20826;-85
2022/04/01 09:03:34;;;;;;;9.47;3.80;;;3.10;99.90;;;;;;5079647;28;20052;-86
2022/04/01 09:06:02;;;;;;;10.13;3.80;;;1.80;99.90;;;;;;5081207;28;20467;-86
2022/04/01 09:08:39;;;;;;;10.80;4.10;;;1.70;99.90;;;;;;5079368;28;20055;-87
2022/04/01 09:11:08;;;;;;;13.27;4.77;;;1.70;99.90;;;;;;5079958;28;20119;-86
2022/04/01 09:13:51;;;;;;;12.60;4.67;;;1.70;99.90;;;;;;5079758;28;20062;-86
2022/04/01 09:16:30;;;;;;;10.63;4.93;;;1.80;99.90;;;;;;5078668;28;20075;-86
2022/04/01 09:18:58;;;;;;;9.33;4.13;;;2.00;99.90;;;;;;5079532;28;20041;-86
2022/04/01 09:21:30;;;;;;;10.10;4.70;;;2.10;99.90;;;;;;5079626;28;20037;-86
2022/04/01 09:23:57;;;;;;;10.43;4.23;;;2.00;99.90;;;;;;5079339;28;20104;-89
2022/04/01 09:26:30;;;;;;;11.97;4.50;;;2.10;99.90;;;;;;5080327;28;20438;-91
2022/04/01 09:28:56;;;;;;;;;;;2.00;99.90;;;;;;5080169;28;20072;-87
2022/04/01 09:31:24;;;;;;;11.47;4.90;;;1.90;99.90;;;;;;5079425;28;19924;-85
2022/04/01 09:33:52;;;;;;;10.97;4.60;;;2.00;99.90;;;;;;5081297;28;20442;-87
2022/04/01 09:36:26;;;;;;;11.80;4.87;;;1.90;99.90;;;;;;5079007;28;20102;-85
2022/04/01 09:38:56;;;;;;;12.80;4.37;;;1.80;99.90;;;;;;5078804;28;20068;-88
2022/04/01 09:41:32;;;;;;;10.93;5.00;;;1.80;99.90;;;;;;5079374;28;20080;-87
2022/04/01 09:44:11;;;;;;;10.90;4.93;;;1.90;99.90;;;;;;5077449;28;20063;-89
2022/04/01 09:46:42;;;;;;;10.87;4.70;;;1.90;99.90;;;;;;5072213;28;20076;-88
2022/04/01 09:49:09;;;;;;;13.00;4.80;;;1.90;99.90;;;;;;5070503;28;20037;-89
2022/04/01 09:51:39;;;;;;;14.73;5.07;;;2.00;99.90;;;;;;5066090;28;20047;-88
2022/04/01 09:54:05;;;;;;;11.13;4.60;;;2.10;99.90;;;;;;5066808;28;20041;-88
2022/04/01 09:56:41;;;;;;;10.70;4.87;;;2.10;99.90;;;;;;5069818;28;20127;-89
2022/04/01 09:59:11;;;;;;;10.27;4.20;;;2.20;99.90;;;;;;5069007;28;20045;-91
2022/04/01 10:01:38;;;;;;;11.03;5.07;;;2.10;99.90;;;;;;5071512;28;20055;-89
2022/04/01 10:04:05;;;;;;;11.13;5.07;;;2.30;99.90;;;;;;5076771;28;20055;-90
2022/04/01 10:06:33;;;;;;;9.90;4.40;;;2.30;99.90;;;;;;5075609;28;20049;-89
2022/04/01 10:09:04;;;;;;;11.10;4.70;;;2.60;99.90;;;;;;5078313;28;20128;-91
2022/04/01 10:11:31;;;;;;;10.77;4.23;;;2.40;99.90;;;;;;5078932;28;20062;-90
2022/04/01 10:14:03;;;;;;;13.13;5.57;;;2.40;99.90;;;;;;5074144;28;20112;-91
2022/04/01 10:16:33;;;;;;;10.43;5.00;;;2.40;99.90;;;;;;5072493;28;20033;-91
2022/04/01 10:19:08;;;;;;;11.63;5.20;;;3.10;99.90;;;;;;5067613;28;20063;-92
2022/04/01 10:21:37;;;;;;;9.53;4.20;;;2.50;99.90;;;;;;5065825;28;20041;-88
2022/04/01 10:24:52;;;;;;;12.03;5.57;;;3.70;99.90;;;;;;5065722;28;20072;-88
2022/04/01 10:27:41;;;;;;;11.53;5.37;;;2.50;99.90;;;;;;5026875;28;20049;-88
2022/04/01 10:30:09;;;;;;;10.77;4.80;;;2.40;99.90;;;;;;5067265;28;20041;-90
2022/04/01 10:32:34;;;;;;;10.93;5.10;;;2.40;99.90;;;;;;5075284;28;20032;-90
2022/04/01 10:35:03;;;;;;;12.43;5.47;;;2.40;99.90;;;;;;5070484;28;20075;-92
2022/04/01 10:37:32;;;;;;;11.80;5.23;;;2.40;99.90;;;;;;5076003;28;20028;-90
2022/04/01 10:40:05;;;;;;;11.67;5.50;;;2.40;99.90;;;;;;5078395;28;20068;-92
2022/04/01 10:42:33;;;;;;;10.57;4.57;;;2.50;99.90;;;;;;5070916;28;20502;-96
2022/04/01 10:45:03;;;;;;;9.83;4.57;;;2.30;99.90;;;;;;5061475;28;20041;-94
2022/04/01 10:53:39;;;;;;;11.43;4.70;;;2.40;99.90;;;;;;5061261;28;20048;-93
2022/04/01 10:56:26;;;;;;;10.87;4.40;;;2.40;99.90;;;;;;5061546;28;20113;-92
2022/04/01 10:59:15;;;;;;;11.47;4.37;;;2.40;99.90;;;;;;5061734;28;20045;-91
2022/04/01 11:02:02;;;;;;;9.27;3.67;;;2.40;99.90;;;;;;5071049;28;20086;-95
2022/04/01 11:04:30;;;;;;;9.63;4.13;;;2.30;99.90;;;;;;5075066;28;20082;-93
2022/04/01 11:07:12;;;;;;;11.50;4.50;;;2.30;99.90;;;;;;5079208;28;20033;-92
2022/04/01 11:09:37;;;;;;;10.07;3.47;;;2.30;99.90;;;;;;5075074;28;20041;-94
2022/04/01 11:12:15;;;;;;;10.67;4.20;;;2.30;99.90;;;;;;5070797;28;20094;-91
2022/04/01 11:15:00;;;;;;;9.87;3.87;;;2.30;99.90;;;;;;5062225;28;20045;-91
2022/04/01 11:17:27;;;;;;;10.70;3.60;;;2.30;99.90;;;;;;5063451;28;20069;-92
2022/04/01 11:20:19;;;;;;;8.57;3.03;;;2.20;99.90;;;;;;5060664;28;20045;-86
2022/04/01 11:23:00;;;;;;;10.23;3.60;;;2.20;99.90;;;;;;5056519;28;20049;-91
2022/04/01 11:25:31;;;;;;;8.83;3.43;;;2.30;99.90;;;;;;5059641;28;20045;-93
2022/04/01 11:28:06;;;;;;;9.10;3.40;;;3.40;99.90;;;;;;5059873;28;20045;-87
2022/04/01 11:30:42;;;;;;;7.97;2.90;;;2.50;99.90;;;;;;5056560;28;20049;-86
2022/04/01 11:33:19;;;;;;;8.63;2.93;;;2.40;99.90;;;;;;5059408;28;20075;-87
2022/04/01 11:35:49;;;;;;;8.83;3.07;;;2.40;99.90;;;;;;5061096;28;20037;-88
2022/04/01 11:38:20;;;;;;;8.13;3.00;;;2.30;99.90;;;;;;5059610;28;20072;-91
2022/04/01 11:40:53;;;;;;;6.93;2.53;;;2.40;99.90;;;;;;5062166;28;20044;-88
2022/04/01 11:43:24;;;;;;;7.65;2.35;;;2.50;99.90;;;;;;5060213;28;20135;-88
2022/04/01 11:45:57;;;;;;;9.30;2.83;;;3.40;99.90;;;;;;5060658;28;20037;-87
2022/04/01 11:48:34;;;;;;;8.93;2.90;;;2.30;99.90;;;;;;5063250;28;20064;-92
2022/04/01 11:51:05;;;;;;;7.70;2.67;;;2.50;99.90;;;;;;5062768;28;20040;-90
2022/04/01 11:53:37;;;;;;;8.53;2.80;;;2.50;99.90;;;;;;5060785;28;20053;-89
2022/04/01 11:56:05;;;;;;;8.93;2.60;;;2.40;99.90;;;;;;5061710;28;20080;-89
2022/04/01 11:58:51;;;;;;;8.13;2.67;;;2.40;99.90;;;;;;5061385;28;20583;-94
2022/04/01 12:01:18;;;;;;;7.93;2.87;;;2.50;99.90;;;;;;5061367;28;20057;-94
2022/04/01 12:03:45;;;;;;;8.93;3.00;;;2.50;99.90;;;;;;5065332;28;20053;-90
2022/04/01 12:08:41;;;;;;;8.73;2.80;;;2.70;99.90;;;;;;5063500;28;20056;-90
2022/04/01 12:09:02;;;;;;;8.37;2.63;;;2.80;99.90;;;;;;5073247;28;20179;-89
2022/04/01 12:11:27;;;;;;;7.10;2.40;;;3.60;99.90;;;;;;5082342;28;20049;-89
2022/04/01 12:13:53;;;;;;;10.50;2.70;;;2.90;99.90;;;;;;5080890;28;20044;-86
2022/04/01 12:16:21;;;;;;;9.07;2.70;;;2.90;99.90;;;;;;5080303;28;20159;-89
2022/04/01 12:18:49;;;;;;;9.93;2.80;;;2.90;99.90;;;;;;5080832;28;20083;-89
2022/04/01 12:21:22;;;;;;;9.63;3.07;;;2.80;99.90;;;;;;5079398;28;20043;-87
2022/04/01 12:23:50;;;;;;;8.00;2.50;;;2.90;99.90;;;;;;5072363;28;20055;-88
2022/04/01 12:26:18;;;;;;;7.40;2.30;;;3.00;99.90;;;;;;5066304;28;20041;-87
2022/04/01 12:28:45;;;;;;;8.63;2.90;;;2.80;99.90;;;;;;5070645;28;20040;-89
2022/04/01 12:31:17;;;;;;;9.17;2.70;;;2.90;99.90;;;;;;5069849;28;20055;-88
2022/04/01 12:33:47;;;;;;;8.27;2.60;;;3.00;99.90;;;;;;5070345;28;20170;-89
2022/04/01 12:36:12;;;;;;;7.70;2.40;;;2.90;99.90;;;;;;5065507;28;20056;-89
2022/04/01 12:38:40;;;;;;;8.47;2.77;;;3.00;99.90;;;;;;5071502;28;20037;-90
2022/04/01 12:41:07;;;;;;;8.10;2.60;;;3.10;99.90;;;;;;5072008;28;20046;-89
2022/04/01 12:43:51;;;;;;;8.50;2.30;;;3.00;99.90;;;;;;5070085;28;20070;-90
2022/04/01 12:46:21;;;;;;;;;;;3.10;99.90;;;;;;5074448;28;20049;-89
2022/04/01 12:48:55;;;;;;;8.67;2.63;;;3.10;99.90;;;;;;5072077;28;20007;-90
2022/04/01 12:51:30;;;;;;;7.67;2.47;;;3.10;99.90;;;;;;5072345;28;20047;-90
2022/04/01 12:53:56;;;;;;;8.60;2.30;;;3.20;99.90;;;;;;5073123;28;20103;-91
2022/04/01 12:56:34;;;;;;;8.20;2.50;;;3.20;99.90;;;;;;5074715;28;20044;-89
2022/04/01 12:59:06;;;;;;;6.50;2.07;;;3.20;99.90;;;;;;5068362;28;20048;-90
2022/04/01 13:01:33;;;;;;;9.33;2.20;;;3.10;99.90;;;;;;5066976;28;20087;-90
2022/04/01 13:04:00;;;;;;;7.80;2.47;;;3.20;99.90;;;;;;5073303;28;20045;-89
2022/04/01 13:06:29;;;;;;;8.13;2.50;;;3.20;99.90;;;;;;5072292;28;20051;-90
2022/04/01 13:09:00;;;;;;;5.87;2.10;;;3.30;99.90;;;;;;5073966;28;20033;-89
2022/04/01 13:11:43;;;;;;;7.97;2.27;;;3.20;99.90;;;;;;5075407;28;20040;-90
2022/04/01 13:14:24;;;;;;;7.82;2.55;;;3.20;99.90;;;;;;5073635;28;20032;-90
2022/04/01 13:16:51;;;;;;;7.43;2.47;;;3.20;99.90;;;;;;5076370;28;20088;-89